PWSweather.com
Personal Weather Stations
Station Observations
CW4438
Little Flock, AR 72756

Little Flock, AR 72756

Lat: 36.39, Lon: -94.14

Elevation: 1278

Station Type: Davis/Vantage Pro

Latest ConditionsUpdated 4:30:07 PM CDT Wednesday, Sep 17, 2014
Currently Today's Max Today's Min Today's Average
Temperature 70.6°F21.4°C 86.5°F30.3°C 63.5°F17.5°C 71.9°F22.2°C
Dew Point 66.6°F19.2°C 73.3°F22.9°C 62.6°F17.0°C 67.9°F19.9°C
Winds Calm Calm 5.0 mph SSE8.0 kmh SSE - 0.7 mph 1.1 kmh
Wind Gusts -- -- - -
Humidity 87% 98% 62% 88%
Pressure 29.83 in1010.2 mb 29.98 in1015.2 mb 29.81 in1009.5 mb -
Hour Temp Dew Point Humidity Winds Wind Gusts Pressure Precip Precip Rate Daily Precip Total
04:30 PM 70.6°F21.4°C 66.6°F19.2°C 87% Calm Calm -- 29.83 in1010.2 mb 0.00 in0.0 mm 0.00 in/hr0.0 mm/hr 0.00 in0.0 mm
04:00 PM 71.0°F21.7°C 64.9°F18.3°C 81% Calm Calm -- 29.84 in1010.5 mb 0.00 in0.0 mm 0.00 in/hr0.0 mm/hr 0.00 in0.0 mm
03:30 PM 81.5°F27.5°C 67.2°F19.6°C 62% 2.0 mph W3.2 kmh W -- 29.81 in1009.5 mb 0.00 in0.0 mm 0.00 in/hr0.0 mm/hr 0.00 in0.0 mm
03:00 PM 86.5°F30.3°C 72.9°F22.7°C 64% Calm Calm -- 29.81 in1009.5 mb 0.00 in0.0 mm 0.00 in/hr0.0 mm/hr 0.00 in0.0 mm
02:30 PM 85.0°F29.4°C 73.3°F22.9°C 68% 5.0 mph SSE8.0 kmh SSE -- 29.83 in1010.2 mb 0.00 in0.0 mm 0.00 in/hr0.0 mm/hr 0.00 in0.0 mm
02:00 PM 83.8°F28.8°C 72.6°F22.6°C 69% 1.0 mph SW1.6 kmh SW -- 29.84 in1010.5 mb 0.00 in0.0 mm 0.00 in/hr0.0 mm/hr 0.00 in0.0 mm
01:30 PM 82.8°F28.2°C 72.4°F22.4°C 71% Calm Calm -- 29.84 in1010.5 mb 0.00 in0.0 mm 0.00 in/hr0.0 mm/hr 0.00 in0.0 mm
01:00 PM 82.7°F28.2°C 72.8°F22.7°C 72% Calm Calm -- 29.85 in1010.8 mb 0.00 in0.0 mm 0.00 in/hr0.0 mm/hr 0.00 in0.0 mm
12:30 PM 81.5°F27.5°C 72.8°F22.7°C 75% Calm Calm -- 29.86 in1011.2 mb 0.00 in0.0 mm 0.00 in/hr0.0 mm/hr 0.00 in0.0 mm
12:00 PM 80.5°F26.9°C 71.9°F22.2°C 75% 1.0 mph S1.6 kmh S -- 29.88 in1011.9 mb 0.00 in0.0 mm 0.00 in/hr0.0 mm/hr 0.00 in0.0 mm
11:30 AM 79.2°F26.2°C 71.8°F22.1°C 78% 2.0 mph S3.2 kmh S -- 29.88 in1011.9 mb 0.00 in0.0 mm 0.00 in/hr0.0 mm/hr 0.00 in0.0 mm
11:00 AM 77.6°F25.3°C 71.3°F21.8°C 81% Calm Calm -- 29.89 in1012.2 mb 0.00 in0.0 mm 0.00 in/hr0.0 mm/hr 0.00 in0.0 mm
10:30 AM 75.9°F24.4°C 71.4°F21.9°C 86% 4.0 mph ESE6.4 kmh ESE -- 29.90 in1012.5 mb 0.00 in0.0 mm 0.00 in/hr0.0 mm/hr 0.00 in0.0 mm
10:00 AM 74.5°F23.6°C 70.7°F21.5°C 88% Calm Calm -- 29.90 in1012.5 mb 0.00 in0.0 mm 0.00 in/hr0.0 mm/hr 0.00 in0.0 mm
09:30 AM 71.8°F22.1°C 69.4°F20.8°C 92% Calm Calm -- 29.91 in1012.9 mb 0.00 in0.0 mm 0.00 in/hr0.0 mm/hr 0.00 in0.0 mm
09:00 AM 69.4°F20.8°C 68.2°F20.1°C 96% Calm Calm -- 29.90 in1012.5 mb 0.00 in0.0 mm 0.00 in/hr0.0 mm/hr 0.00 in0.0 mm
08:30 AM 68.1°F20.1°C 67.5°F19.7°C 98% 3.0 mph SE4.8 kmh SE -- 29.90 in1012.5 mb 0.00 in0.0 mm 0.00 in/hr0.0 mm/hr 0.00 in0.0 mm
08:00 AM 67.6°F19.8°C 67.0°F19.4°C 98% 4.0 mph SSE6.4 kmh SSE -- 29.89 in1012.2 mb 0.00 in0.0 mm 0.00 in/hr0.0 mm/hr 0.00 in0.0 mm
07:30 AM 67.1°F19.5°C 66.5°F19.2°C 98% Calm Calm -- 29.89 in1012.2 mb 0.00 in0.0 mm 0.00 in/hr0.0 mm/hr 0.00 in0.0 mm
07:00 AM 66.7°F19.3°C 66.1°F18.9°C 98% Calm Calm -- 29.89 in1012.2 mb 0.00 in0.0 mm 0.00 in/hr0.0 mm/hr 0.00 in0.0 mm
06:30 AM 66.0°F18.9°C 65.4°F18.6°C 98% 1.0 mph S1.6 kmh S -- 29.90 in1012.5 mb 0.00 in0.0 mm 0.00 in/hr0.0 mm/hr 0.00 in0.0 mm
06:00 AM 66.0°F18.9°C 65.4°F18.6°C 98% Calm Calm -- 29.90 in1012.5 mb 0.00 in0.0 mm 0.00 in/hr0.0 mm/hr 0.00 in0.0 mm
05:30 AM 66.5°F19.2°C 65.9°F18.8°C 98% Calm Calm -- 29.91 in1012.9 mb 0.00 in0.0 mm 0.00 in/hr0.0 mm/hr 0.00 in0.0 mm
05:00 AM 66.3°F19.1°C 65.7°F18.7°C 98% Calm Calm -- 29.91 in1012.9 mb 0.00 in0.0 mm 0.00 in/hr0.0 mm/hr 0.00 in0.0 mm
04:30 AM 66.1°F18.9°C 65.5°F18.6°C 98% Calm Calm -- 29.92 in1013.2 mb 0.00 in0.0 mm 0.00 in/hr0.0 mm/hr 0.00 in0.0 mm
04:00 AM 66.3°F19.1°C 65.7°F18.7°C 98% Calm Calm -- 29.93 in1013.5 mb 0.00 in0.0 mm 0.00 in/hr0.0 mm/hr 0.00 in0.0 mm
03:30 AM 66.6°F19.2°C 66.0°F18.9°C 98% Calm Calm -- 29.94 in1013.9 mb 0.00 in0.0 mm 0.00 in/hr0.0 mm/hr 0.00 in0.0 mm
03:00 AM 66.4°F19.1°C 65.8°F18.8°C 98% Calm Calm -- 29.95 in1014.2 mb 0.00 in0.0 mm 0.00 in/hr0.0 mm/hr 0.00 in0.0 mm
02:30 AM 66.1°F18.9°C 65.5°F18.6°C 98% Calm Calm -- 29.96 in1014.6 mb 0.00 in0.0 mm 0.00 in/hr0.0 mm/hr 0.00 in0.0 mm
02:00 AM 65.8°F18.8°C 65.2°F18.4°C 98% Calm Calm -- 29.96 in1014.6 mb 0.00 in0.0 mm 0.00 in/hr0.0 mm/hr 0.00 in0.0 mm
01:30 AM 65.6°F18.7°C 65.0°F18.3°C 98% Calm Calm -- 29.97 in1014.9 mb 0.00 in0.0 mm 0.00 in/hr0.0 mm/hr 0.00 in0.0 mm
01:00 AM 65.4°F18.6°C 64.8°F18.2°C 98% Calm Calm -- 29.98 in1015.2 mb 0.00 in0.0 mm 0.00 in/hr0.0 mm/hr 0.00 in0.0 mm
12:30 AM 64.8°F18.2°C 64.2°F17.9°C 98% Calm Calm -- 29.98 in1015.2 mb 0.00 in0.0 mm 0.00 in/hr0.0 mm/hr 0.00 in0.0 mm
12:00 AM 63.5°F17.5°C 62.6°F17.0°C 97% Calm Calm -- 29.98 in1015.2 mb 0.00 in0.0 mm 0.00 in/hr0.0 mm/hr 0.00 in0.0 mm